sensor_id;sensor_type;location;lat;lon;timestamp;temperature;humidity
45535;DHT22;35892;48.798;9.698;2022-09-24T00:01:35;10.60;99.90
45535;DHT22;35892;48.798;9.698;2022-09-24T00:04:08;10.60;99.90
45535;DHT22;35892;48.798;9.698;2022-09-24T00:06:46;10.50;99.90
45535;DHT22;35892;48.798;9.698;2022-09-24T00:09:15;10.50;99.90
45535;DHT22;35892;48.798;9.698;2022-09-24T00:11:42;10.50;99.90
45535;DHT22;35892;48.798;9.698;2022-09-24T00:14:11;10.50;99.90
45535;DHT22;35892;48.798;9.698;2022-09-24T00:16:41;10.50;99.90
45535;DHT22;35892;48.798;9.698;2022-09-24T00:19:10;10.50;99.90
45535;DHT22;35892;48.798;9.698;2022-09-24T00:21:40;10.50;99.90
45535;DHT22;35892;48.798;9.698;2022-09-24T00:24:16;10.50;99.90
45535;DHT22;35892;48.798;9.698;2022-09-24T00:27:03;10.50;99.90
45535;DHT22;35892;48.798;9.698;2022-09-24T00:29:33;10.50;99.90
45535;DHT22;35892;48.798;9.698;2022-09-24T00:32:01;10.50;99.90
45535;DHT22;35892;48.798;9.698;2022-09-24T00:34:28;10.50;99.90
45535;DHT22;35892;48.798;9.698;2022-09-24T00:36:55;10.50;99.90
45535;DHT22;35892;48.798;9.698;2022-09-24T00:39:25;10.50;99.90
45535;DHT22;35892;48.798;9.698;2022-09-24T00:41:54;10.50;99.90
45535;DHT22;35892;48.798;9.698;2022-09-24T00:47:36;10.60;99.90
45535;DHT22;35892;48.798;9.698;2022-09-24T00:50:25;10.60;99.90
45535;DHT22;35892;48.798;9.698;2022-09-24T00:53:00;10.50;99.90
45535;DHT22;35892;48.798;9.698;2022-09-24T00:55:28;10.50;99.90
45535;DHT22;35892;48.798;9.698;2022-09-24T00:57:57;10.60;99.90
45535;DHT22;35892;48.798;9.698;2022-09-24T01:00:24;10.60;99.90
45535;DHT22;35892;48.798;9.698;2022-09-24T01:03:01;10.50;99.90
45535;DHT22;35892;48.798;9.698;2022-09-24T01:05:29;10.50;99.90
45535;DHT22;35892;48.798;9.698;2022-09-24T01:07:56;10.50;99.90
45535;DHT22;35892;48.798;9.698;2022-09-24T01:21:32;10.20;99.90
45535;DHT22;35892;48.798;9.698;2022-09-24T01:32:37;10.00;99.90
45535;DHT22;35892;48.798;9.698;2022-09-24T01:37:56;10.00;99.90
45535;DHT22;35892;48.798;9.698;2022-09-24T01:40:26;10.00;99.90
45535;DHT22;35892;48.798;9.698;2022-09-24T01:42:58;10.00;99.90
45535;DHT22;35892;48.798;9.698;2022-09-24T01:45:31;10.00;99.90
45535;DHT22;35892;48.798;9.698;2022-09-24T01:48:01;10.00;99.90
45535;DHT22;35892;48.798;9.698;2022-09-24T01:50:33;9.90;99.90
45535;DHT22;35892;48.798;9.698;2022-09-24T01:53:18;9.90;99.90
45535;DHT22;35892;48.798;9.698;2022-09-24T01:55:56;9.80;99.90
45535;DHT22;35892;48.798;9.698;2022-09-24T01:58:42;9.80;99.90
45535;DHT22;35892;48.798;9.698;2022-09-24T02:01:16;9.70;99.90
45535;DHT22;35892;48.798;9.698;2022-09-24T02:03:49;9.70;99.90
45535;DHT22;35892;48.798;9.698;2022-09-24T02:06:28;9.70;99.90
45535;DHT22;35892;48.798;9.698;2022-09-24T02:08:56;9.60;99.90
45535;DHT22;35892;48.798;9.698;2022-09-24T02:11:25;9.60;99.90
45535;DHT22;35892;48.798;9.698;2022-09-24T02:14:06;9.60;99.90
45535;DHT22;35892;48.798;9.698;2022-09-24T02:16:45;9.70;99.90
45535;DHT22;35892;48.798;9.698;2022-09-24T02:19:18;9.70;99.90
45535;DHT22;35892;48.798;9.698;2022-09-24T02:21:51;9.70;99.90
45535;DHT22;35892;48.798;9.698;2022-09-24T02:24:21;9.60;99.90
45535;DHT22;35892;48.798;9.698;2022-09-24T02:26:52;9.60;99.90
45535;DHT22;35892;48.798;9.698;2022-09-24T02:29:21;9.60;99.90
45535;DHT22;35892;48.798;9.698;2022-09-24T02:31:53;9.50;99.90
45535;DHT22;35892;48.798;9.698;2022-09-24T02:34:39;9.50;99.90
45535;DHT22;35892;48.798;9.698;2022-09-24T02:37:09;9.50;99.90
45535;DHT22;35892;48.798;9.698;2022-09-24T02:39:40;9.40;99.90
45535;DHT22;35892;48.798;9.698;2022-09-24T02:42:12;9.40;99.90
45535;DHT22;35892;48.798;9.698;2022-09-24T02:44:42;9.50;99.90
45535;DHT22;35892;48.798;9.698;2022-09-24T02:47:09;9.40;99.90
45535;DHT22;35892;48.798;9.698;2022-09-24T02:49:39;9.40;99.90
45535;DHT22;35892;48.798;9.698;2022-09-24T02:52:05;9.40;99.90
45535;DHT22;35892;48.798;9.698;2022-09-24T02:54:32;9.50;99.90
45535;DHT22;35892;48.798;9.698;2022-09-24T02:56:59;9.50;99.90
45535;DHT22;35892;48.798;9.698;2022-09-24T02:59:26;9.50;99.90
45535;DHT22;35892;48.798;9.698;2022-09-24T03:01:53;9.50;99.90
45535;DHT22;35892;48.798;9.698;2022-09-24T03:04:20;9.40;99.90
45535;DHT22;35892;48.798;9.698;2022-09-24T03:06:51;9.40;99.90
45535;DHT22;35892;48.798;9.698;2022-09-24T03:09:21;9.40;99.90
45535;DHT22;35892;48.798;9.698;2022-09-24T03:11:50;9.40;99.90
45535;DHT22;35892;48.798;9.698;2022-09-24T03:14:19;9.50;99.90
45535;DHT22;35892;48.798;9.698;2022-09-24T03:16:51;9.50;99.90
45535;DHT22;35892;48.798;9.698;2022-09-24T03:19:18;9.50;99.90
45535;DHT22;35892;48.798;9.698;2022-09-24T03:21:49;9.50;99.90
45535;DHT22;35892;48.798;9.698;2022-09-24T03:24:16;9.60;99.90
45535;DHT22;35892;48.798;9.698;2022-09-24T03:26:45;9.60;99.90
45535;DHT22;35892;48.798;9.698;2022-09-24T03:29:14;9.60;99.90
45535;DHT22;35892;48.798;9.698;2022-09-24T03:31:40;9.60;99.90
45535;DHT22;35892;48.798;9.698;2022-09-24T03:34:09;9.50;99.90
45535;DHT22;35892;48.798;9.698;2022-09-24T03:36:41;9.60;99.90
45535;DHT22;35892;48.798;9.698;2022-09-24T03:39:10;9.60;99.90
45535;DHT22;35892;48.798;9.698;2022-09-24T03:41:44;9.60;99.90
45535;DHT22;35892;48.798;9.698;2022-09-24T03:44:10;9.60;99.90
45535;DHT22;35892;48.798;9.698;2022-09-24T03:46:37;9.60;99.90
45535;DHT22;35892;48.798;9.698;2022-09-24T03:49:06;9.60;99.90
45535;DHT22;35892;48.798;9.698;2022-09-24T03:51:35;9.60;99.90
45535;DHT22;35892;48.798;9.698;2022-09-24T03:54:02;9.60;99.90
45535;DHT22;35892;48.798;9.698;2022-09-24T03:56:29;9.60;99.90
45535;DHT22;35892;48.798;9.698;2022-09-24T03:58:55;9.60;99.90
45535;DHT22;35892;48.798;9.698;2022-09-24T04:01:22;9.60;99.90
45535;DHT22;35892;48.798;9.698;2022-09-24T04:03:49;9.60;99.90
45535;DHT22;35892;48.798;9.698;2022-09-24T04:06:21;9.60;99.90
45535;DHT22;35892;48.798;9.698;2022-09-24T04:08:52;9.60;99.90
45535;DHT22;35892;48.798;9.698;2022-09-24T04:11:26;9.60;99.90
45535;DHT22;35892;48.798;9.698;2022-09-24T04:13:55;9.70;99.90
45535;DHT22;35892;48.798;9.698;2022-09-24T04:16:24;9.70;99.90
45535;DHT22;35892;48.798;9.698;2022-09-24T04:18:53;9.70;99.90
45535;DHT22;35892;48.798;9.698;2022-09-24T04:21:23;9.70;99.90
45535;DHT22;35892;48.798;9.698;2022-09-24T04:23:50;9.70;99.90
45535;DHT22;35892;48.798;9.698;2022-09-24T04:26:17;9.70;99.90
45535;DHT22;35892;48.798;9.698;2022-09-24T04:28:43;9.70;99.90
45535;DHT22;35892;48.798;9.698;2022-09-24T04:31:12;9.60;99.90
45535;DHT22;35892;48.798;9.698;2022-09-24T04:33:39;9.70;99.90
45535;DHT22;35892;48.798;9.698;2022-09-24T04:36:06;9.70;99.90
45535;DHT22;35892;48.798;9.698;2022-09-24T04:38:33;9.70;99.90
45535;DHT22;35892;48.798;9.698;2022-09-24T04:41:08;9.80;99.90
45535;DHT22;35892;48.798;9.698;2022-09-24T04:43:40;9.80;99.90
45535;DHT22;35892;48.798;9.698;2022-09-24T04:46:07;9.80;99.90
45535;DHT22;35892;48.798;9.698;2022-09-24T04:48:38;9.80;99.90
45535;DHT22;35892;48.798;9.698;2022-09-24T04:51:06;9.70;99.90
45535;DHT22;35892;48.798;9.698;2022-09-24T04:53:34;9.80;99.90
45535;DHT22;35892;48.798;9.698;2022-09-24T04:56:04;9.80;99.90
45535;DHT22;35892;48.798;9.698;2022-09-24T04:58:37;9.90;99.90
45535;DHT22;35892;48.798;9.698;2022-09-24T05:01:06;9.90;99.90
45535;DHT22;35892;48.798;9.698;2022-09-24T05:03:33;9.90;99.90
45535;DHT22;35892;48.798;9.698;2022-09-24T05:06:02;10.00;99.90
45535;DHT22;35892;48.798;9.698;2022-09-24T05:08:29;9.90;99.90
45535;DHT22;35892;48.798;9.698;2022-09-24T05:10:56;9.90;99.90
45535;DHT22;35892;48.798;9.698;2022-09-24T05:13:25;9.90;99.90
45535;DHT22;35892;48.798;9.698;2022-09-24T05:15:51;9.90;99.90
45535;DHT22;35892;48.798;9.698;2022-09-24T05:18:23;9.90;99.90
45535;DHT22;35892;48.798;9.698;2022-09-24T05:20:49;9.90;99.90
45535;DHT22;35892;48.798;9.698;2022-09-24T05:23:16;10.00;99.90
45535;DHT22;35892;48.798;9.698;2022-09-24T05:25:45;9.90;99.90
45535;DHT22;35892;48.798;9.698;2022-09-24T05:28:30;9.90;99.90
45535;DHT22;35892;48.798;9.698;2022-09-24T05:31:01;9.90;99.90
45535;DHT22;35892;48.798;9.698;2022-09-24T05:33:28;9.90;99.90
45535;DHT22;35892;48.798;9.698;2022-09-24T05:35:57;10.00;99.90
45535;DHT22;35892;48.798;9.698;2022-09-24T05:38:26;10.00;99.90
45535;DHT22;35892;48.798;9.698;2022-09-24T05:40:55;10.00;99.90
45535;DHT22;35892;48.798;9.698;2022-09-24T05:43:26;10.00;99.90
45535;DHT22;35892;48.798;9.698;2022-09-24T05:45:53;10.10;99.90
45535;DHT22;35892;48.798;9.698;2022-09-24T05:48:20;10.10;99.90
45535;DHT22;35892;48.798;9.698;2022-09-24T05:50:49;10.10;99.90
45535;DHT22;35892;48.798;9.698;2022-09-24T05:53:23;10.10;99.90
45535;DHT22;35892;48.798;9.698;2022-09-24T05:55:50;10.20;99.90
45535;DHT22;35892;48.798;9.698;2022-09-24T05:58:16;10.20;99.90
45535;DHT22;35892;48.798;9.698;2022-09-24T06:00:44;10.30;99.90
45535;DHT22;35892;48.798;9.698;2022-09-24T06:03:19;10.30;99.90
45535;DHT22;35892;48.798;9.698;2022-09-24T06:05:53;10.40;99.90
45535;DHT22;35892;48.798;9.698;2022-09-24T06:08:25;10.40;99.90
45535;DHT22;35892;48.798;9.698;2022-09-24T06:10:51;10.50;99.90
45535;DHT22;35892;48.798;9.698;2022-09-24T06:13:19;10.60;99.90
45535;DHT22;35892;48.798;9.698;2022-09-24T06:15:49;10.60;99.90
45535;DHT22;35892;48.798;9.698;2022-09-24T06:18:16;10.70;99.90
45535;DHT22;35892;48.798;9.698;2022-09-24T06:20:48;10.70;99.90
45535;DHT22;35892;48.798;9.698;2022-09-24T06:23:16;10.80;99.90
45535;DHT22;35892;48.798;9.698;2022-09-24T06:25:49;10.80;99.90
45535;DHT22;35892;48.798;9.698;2022-09-24T06:28:19;10.80;99.90
45535;DHT22;35892;48.798;9.698;2022-09-24T06:30:49;10.90;99.90
45535;DHT22;35892;48.798;9.698;2022-09-24T06:33:18;10.90;99.90
45535;DHT22;35892;48.798;9.698;2022-09-24T06:35:51;11.00;99.90
45535;DHT22;35892;48.798;9.698;2022-09-24T06:38:21;11.10;99.90
45535;DHT22;35892;48.798;9.698;2022-09-24T06:40:52;11.10;99.90
45535;DHT22;35892;48.798;9.698;2022-09-24T06:43:19;11.10;99.90
45535;DHT22;35892;48.798;9.698;2022-09-24T06:45:48;11.20;99.90
45535;DHT22;35892;48.798;9.698;2022-09-24T06:48:17;11.30;99.90
45535;DHT22;35892;48.798;9.698;2022-09-24T06:50:44;11.40;99.90
45535;DHT22;35892;48.798;9.698;2022-09-24T06:53:11;11.50;99.90
45535;DHT22;35892;48.798;9.698;2022-09-24T06:55:39;11.60;99.90
45535;DHT22;35892;48.798;9.698;2022-09-24T06:58:10;11.80;99.90
45535;DHT22;35892;48.798;9.698;2022-09-24T07:00:40;11.90;99.90
45535;DHT22;35892;48.798;9.698;2022-09-24T07:03:12;11.90;99.90
45535;DHT22;35892;48.798;9.698;2022-09-24T07:05:42;12.00;99.90
45535;DHT22;35892;48.798;9.698;2022-09-24T07:08:09;12.10;99.90
45535;DHT22;35892;48.798;9.698;2022-09-24T07:10:40;12.10;99.90
45535;DHT22;35892;48.798;9.698;2022-09-24T07:13:11;12.30;99.90
45535;DHT22;35892;48.798;9.698;2022-09-24T07:15:38;12.30;99.90
45535;DHT22;35892;48.798;9.698;2022-09-24T07:18:05;12.40;99.90
45535;DHT22;35892;48.798;9.698;2022-09-24T07:20:31;12.50;99.90
45535;DHT22;35892;48.798;9.698;2022-09-24T07:23:09;12.50;99.90
45535;DHT22;35892;48.798;9.698;2022-09-24T07:25:39;12.50;99.90
45535;DHT22;35892;48.798;9.698;2022-09-24T07:28:10;12.50;99.90
45535;DHT22;35892;48.798;9.698;2022-09-24T07:30:38;12.60;99.90
45535;DHT22;35892;48.798;9.698;2022-09-24T07:33:07;12.60;99.90
45535;DHT22;35892;48.798;9.698;2022-09-24T07:35:40;12.70;99.90
45535;DHT22;35892;48.798;9.698;2022-09-24T07:38:09;12.80;99.90
45535;DHT22;35892;48.798;9.698;2022-09-24T07:40:42;12.80;99.90
45535;DHT22;35892;48.798;9.698;2022-09-24T07:43:10;12.80;99.90
45535;DHT22;35892;48.798;9.698;2022-09-24T07:45:40;12.80;99.90
45535;DHT22;35892;48.798;9.698;2022-09-24T07:48:10;12.90;99.90
45535;DHT22;35892;48.798;9.698;2022-09-24T07:50:46;13.00;99.90
45535;DHT22;35892;48.798;9.698;2022-09-24T07:53:15;13.00;99.90
45535;DHT22;35892;48.798;9.698;2022-09-24T07:55:45;13.20;99.90
45535;DHT22;35892;48.798;9.698;2022-09-24T07:58:12;13.20;99.90
45535;DHT22;35892;48.798;9.698;2022-09-24T08:00:40;13.30;99.90
45535;DHT22;35892;48.798;9.698;2022-09-24T08:03:09;13.40;99.90
45535;DHT22;35892;48.798;9.698;2022-09-24T08:05:44;13.50;99.90
45535;DHT22;35892;48.798;9.698;2022-09-24T08:08:14;13.50;99.90
45535;DHT22;35892;48.798;9.698;2022-09-24T08:10:41;13.50;99.90
45535;DHT22;35892;48.798;9.698;2022-09-24T08:13:11;13.60;99.90
45535;DHT22;35892;48.798;9.698;2022-09-24T08:15:37;13.70;99.90
45535;DHT22;35892;48.798;9.698;2022-09-24T08:18:04;13.80;99.90
45535;DHT22;35892;48.798;9.698;2022-09-24T08:20:32;13.90;99.90
45535;DHT22;35892;48.798;9.698;2022-09-24T08:23:06;14.00;99.90
45535;DHT22;35892;48.798;9.698;2022-09-24T08:25:35;14.10;99.90
45535;DHT22;35892;48.798;9.698;2022-09-24T08:28:06;14.10;99.90
45535;DHT22;35892;48.798;9.698;2022-09-24T08:30:37;14.20;99.90
45535;DHT22;35892;48.798;9.698;2022-09-24T08:33:07;14.30;99.90
45535;DHT22;35892;48.798;9.698;2022-09-24T08:35:39;14.40;99.90
45535;DHT22;35892;48.798;9.698;2022-09-24T08:38:07;14.40;99.90
45535;DHT22;35892;48.798;9.698;2022-09-24T08:46:43;15.00;99.90
45535;DHT22;35892;48.798;9.698;2022-09-24T08:55:09;15.00;99.90
45535;DHT22;35892;48.798;9.698;2022-09-24T08:57:46;15.00;99.90
45535;DHT22;35892;48.798;9.698;2022-09-24T09:00:17;15.00;99.90
45535;DHT22;35892;48.798;9.698;2022-09-24T09:03:00;15.10;99.90
45535;DHT22;35892;48.798;9.698;2022-09-24T09:08:21;15.30;99.90
45535;DHT22;35892;48.798;9.698;2022-09-24T09:11:13;15.50;99.90
45535;DHT22;35892;48.798;9.698;2022-09-24T09:13:55;15.70;99.90
45535;DHT22;35892;48.798;9.698;2022-09-24T09:16:54;15.90;99.90
45535;DHT22;35892;48.798;9.698;2022-09-24T09:19:27;16.00;99.90
45535;DHT22;35892;48.798;9.698;2022-09-24T09:22:25;16.20;99.90
45535;DHT22;35892;48.798;9.698;2022-09-24T09:24:57;16.30;99.90
45535;DHT22;35892;48.798;9.698;2022-09-24T09:27:34;16.50;99.90
45535;DHT22;35892;48.798;9.698;2022-09-24T09:30:04;16.60;99.90
45535;DHT22;35892;48.798;9.698;2022-09-24T09:32:53;16.60;99.90
45535;DHT22;35892;48.798;9.698;2022-09-24T09:35:43;16.60;99.90
45535;DHT22;35892;48.798;9.698;2022-09-24T09:41:10;16.30;99.90
45535;DHT22;35892;48.798;9.698;2022-09-24T09:43:42;16.20;99.90
45535;DHT22;35892;48.798;9.698;2022-09-24T09:46:25;16.40;99.90
45535;DHT22;35892;48.798;9.698;2022-09-24T09:48:59;16.50;99.90
45535;DHT22;35892;48.798;9.698;2022-09-24T09:51:32;16.70;99.90
45535;DHT22;35892;48.798;9.698;2022-09-24T09:54:03;16.80;99.90
45535;DHT22;35892;48.798;9.698;2022-09-24T09:56:41;16.80;99.90
45535;DHT22;35892;48.798;9.698;2022-09-24T10:01:41;16.90;99.90
45535;DHT22;35892;48.798;9.698;2022-09-24T10:04:38;17.00;99.90
45535;DHT22;35892;48.798;9.698;2022-09-24T10:07:09;17.30;99.90
45535;DHT22;35892;48.798;9.698;2022-09-24T10:09:40;17.40;99.90
45535;DHT22;35892;48.798;9.698;2022-09-24T10:12:17;17.50;99.90
45535;DHT22;35892;48.798;9.698;2022-09-24T10:15:20;17.30;99.90
45535;DHT22;35892;48.798;9.698;2022-09-24T10:17:50;17.00;99.90
45535;DHT22;35892;48.798;9.698;2022-09-24T10:20:29;17.00;99.90
45535;DHT22;35892;48.798;9.698;2022-09-24T10:23:05;17.10;99.90
45535;DHT22;35892;48.798;9.698;2022-09-24T10:25:36;17.30;99.90
45535;DHT22;35892;48.798;9.698;2022-09-24T10:28:07;17.40;99.90
45535;DHT22;35892;48.798;9.698;2022-09-24T10:31:27;17.60;99.90
45535;DHT22;35892;48.798;9.698;2022-09-24T10:33:47;17.60;99.90
45535;DHT22;35892;48.798;9.698;2022-09-24T10:36:24;17.60;99.90
45535;DHT22;35892;48.798;9.698;2022-09-24T10:39:12;17.60;99.90
45535;DHT22;35892;48.798;9.698;2022-09-24T10:41:52;17.70;99.90
45535;DHT22;35892;48.798;9.698;2022-09-24T10:44:23;17.80;99.90
45535;DHT22;35892;48.798;9.698;2022-09-24T10:50:13;18.20;99.90
45535;DHT22;35892;48.798;9.698;2022-09-24T10:53:41;18.10;99.90
45535;DHT22;35892;48.798;9.698;2022-09-24T11:09:47;18.70;99.90
45535;DHT22;35892;48.798;9.698;2022-09-24T11:18:25;18.40;99.90
45535;DHT22;35892;48.798;9.698;2022-09-24T11:33:11;18.40;99.90
45535;DHT22;35892;48.798;9.698;2022-09-24T11:36:15;18.30;99.90
45535;DHT22;35892;48.798;9.698;2022-09-24T11:39:06;18.20;99.90
45535;DHT22;35892;48.798;9.698;2022-09-24T11:41:46;18.50;99.90
45535;DHT22;35892;48.798;9.698;2022-09-24T11:52:41;19.10;99.90
45535;DHT22;35892;48.798;9.698;2022-09-24T11:55:21;19.00;99.90
45535;DHT22;35892;48.798;9.698;2022-09-24T11:58:15;18.80;99.90
45535;DHT22;35892;48.798;9.698;2022-09-24T12:00:48;18.70;99.90
45535;DHT22;35892;48.798;9.698;2022-09-24T12:03:20;18.60;99.90
45535;DHT22;35892;48.798;9.698;2022-09-24T12:06:13;18.40;99.90
45535;DHT22;35892;48.798;9.698;2022-09-24T12:08:49;18.20;99.90
45535;DHT22;35892;48.798;9.698;2022-09-24T12:11:40;18.20;99.90
45535;DHT22;35892;48.798;9.698;2022-09-24T12:14:13;18.10;99.90
45535;DHT22;35892;48.798;9.698;2022-09-24T12:16:44;17.90;99.90
45535;DHT22;35892;48.798;9.698;2022-09-24T12:21:49;17.80;99.90
45535;DHT22;35892;48.798;9.698;2022-09-24T12:24:29;17.80;99.90
45535;DHT22;35892;48.798;9.698;2022-09-24T12:27:03;18.00;99.90
45535;DHT22;35892;48.798;9.698;2022-09-24T12:29:46;18.20;99.90
45535;DHT22;35892;48.798;9.698;2022-09-24T12:32:57;18.20;99.90
45535;DHT22;35892;48.798;9.698;2022-09-24T12:38:46;18.10;99.90
45535;DHT22;35892;48.798;9.698;2022-09-24T12:41:28;18.00;99.90
45535;DHT22;35892;48.798;9.698;2022-09-24T12:44:29;18.00;99.90
45535;DHT22;35892;48.798;9.698;2022-09-24T12:46:59;18.10;99.90
45535;DHT22;35892;48.798;9.698;2022-09-24T12:49:31;18.00;99.90
45535;DHT22;35892;48.798;9.698;2022-09-24T12:52:14;17.90;99.90
45535;DHT22;35892;48.798;9.698;2022-09-24T12:54:42;17.70;99.90
45535;DHT22;35892;48.798;9.698;2022-09-24T12:57:21;17.60;99.90
45535;DHT22;35892;48.798;9.698;2022-09-24T12:59:55;17.50;99.90
45535;DHT22;35892;48.798;9.698;2022-09-24T13:02:51;17.40;99.90
45535;DHT22;35892;48.798;9.698;2022-09-24T13:10:28;17.40;99.90
45535;DHT22;35892;48.798;9.698;2022-09-24T13:12:59;17.50;99.90
45535;DHT22;35892;48.798;9.698;2022-09-24T13:20:40;17.40;99.90
45535;DHT22;35892;48.798;9.698;2022-09-24T13:26:05;17.40;99.90
45535;DHT22;35892;48.798;9.698;2022-09-24T13:28:51;17.50;99.90
45535;DHT22;35892;48.798;9.698;2022-09-24T13:34:03;17.70;99.90
45535;DHT22;35892;48.798;9.698;2022-09-24T13:39:43;17.60;99.90
45535;DHT22;35892;48.798;9.698;2022-09-24T13:47:27;17.50;99.90
45535;DHT22;35892;48.798;9.698;2022-09-24T13:50:11;17.50;99.90
45535;DHT22;35892;48.798;9.698;2022-09-24T13:52:50;17.50;99.90
45535;DHT22;35892;48.798;9.698;2022-09-24T13:55:26;17.40;99.90
45535;DHT22;35892;48.798;9.698;2022-09-24T13:57:57;17.30;99.90
45535;DHT22;35892;48.798;9.698;2022-09-24T14:00:28;17.30;99.90
45535;DHT22;35892;48.798;9.698;2022-09-24T14:05:40;17.20;99.90
45535;DHT22;35892;48.798;9.698;2022-09-24T14:08:11;17.10;99.90
45535;DHT22;35892;48.798;9.698;2022-09-24T14:10:42;17.10;99.90
45535;DHT22;35892;48.798;9.698;2022-09-24T14:15:53;17.00;99.90
45535;DHT22;35892;48.798;9.698;2022-09-24T14:18:26;16.90;99.90
45535;DHT22;35892;48.798;9.698;2022-09-24T14:20:54;16.80;99.90
45535;DHT22;35892;48.798;9.698;2022-09-24T14:23:27;16.80;99.90
45535;DHT22;35892;48.798;9.698;2022-09-24T14:25:59;16.70;99.90
45535;DHT22;35892;48.798;9.698;2022-09-24T14:28:29;16.60;99.90
45535;DHT22;35892;48.798;9.698;2022-09-24T14:31:00;16.60;99.90
45535;DHT22;35892;48.798;9.698;2022-09-24T14:33:30;16.50;99.90
45535;DHT22;35892;48.798;9.698;2022-09-24T14:36:02;16.40;99.90
45535;DHT22;35892;48.798;9.698;2022-09-24T14:38:40;16.20;99.90
45535;DHT22;35892;48.798;9.698;2022-09-24T14:41:17;16.10;99.90
45535;DHT22;35892;48.798;9.698;2022-09-24T14:43:51;16.00;99.90
45535;DHT22;35892;48.798;9.698;2022-09-24T14:46:29;15.90;99.90
45535;DHT22;35892;48.798;9.698;2022-09-24T14:51:58;16.20;99.90
45535;DHT22;35892;48.798;9.698;2022-09-24T14:56:53;16.80;99.90
45535;DHT22;35892;48.798;9.698;2022-09-24T14:59:30;17.10;99.90
45535;DHT22;35892;48.798;9.698;2022-09-24T15:05:00;17.00;99.90
45535;DHT22;35892;48.798;9.698;2022-09-24T15:07:33;17.00;99.90
45535;DHT22;35892;48.798;9.698;2022-09-24T15:10:02;16.90;99.90
45535;DHT22;35892;48.798;9.698;2022-09-24T15:15:03;16.80;99.90
45535;DHT22;35892;48.798;9.698;2022-09-24T15:17:32;16.80;99.90
45535;DHT22;35892;48.798;9.698;2022-09-24T15:20:02;16.70;99.90
45535;DHT22;35892;48.798;9.698;2022-09-24T15:22:32;16.70;99.90
45535;DHT22;35892;48.798;9.698;2022-09-24T15:25:02;16.60;99.90
45535;DHT22;35892;48.798;9.698;2022-09-24T15:27:36;16.50;99.90
45535;DHT22;35892;48.798;9.698;2022-09-24T15:30:08;16.40;99.90
45535;DHT22;35892;48.798;9.698;2022-09-24T15:32:38;16.30;99.90
45535;DHT22;35892;48.798;9.698;2022-09-24T15:35:05;16.30;99.90
45535;DHT22;35892;48.798;9.698;2022-09-24T15:37:41;16.20;99.90
45535;DHT22;35892;48.798;9.698;2022-09-24T15:42:35;16.10;99.90
45535;DHT22;35892;48.798;9.698;2022-09-24T15:45:05;16.00;99.90
45535;DHT22;35892;48.798;9.698;2022-09-24T15:47:34;16.00;99.90
45535;DHT22;35892;48.798;9.698;2022-09-24T15:50:04;15.90;99.90
45535;DHT22;35892;48.798;9.698;2022-09-24T15:52:41;15.90;99.90
45535;DHT22;35892;48.798;9.698;2022-09-24T15:55:14;15.90;99.90
45535;DHT22;35892;48.798;9.698;2022-09-24T15:57:44;15.80;99.90
45535;DHT22;35892;48.798;9.698;2022-09-24T16:00:17;15.80;99.90
45535;DHT22;35892;48.798;9.698;2022-09-24T16:02:45;15.80;99.90
45535;DHT22;35892;48.798;9.698;2022-09-24T16:05:16;15.80;99.90
45535;DHT22;35892;48.798;9.698;2022-09-24T16:07:48;15.80;99.90
45535;DHT22;35892;48.798;9.698;2022-09-24T16:10:17;15.70;99.90
45535;DHT22;35892;48.798;9.698;2022-09-24T16:12:49;15.70;99.90
45535;DHT22;35892;48.798;9.698;2022-09-24T16:15:16;15.70;99.90
45535;DHT22;35892;48.798;9.698;2022-09-24T16:17:42;15.70;99.90
45535;DHT22;35892;48.798;9.698;2022-09-24T16:20:09;15.60;99.90
45535;DHT22;35892;48.798;9.698;2022-09-24T16:22:40;15.60;99.90
45535;DHT22;35892;48.798;9.698;2022-09-24T16:25:07;15.50;99.90
45535;DHT22;35892;48.798;9.698;2022-09-24T16:27:36;15.50;99.90
45535;DHT22;35892;48.798;9.698;2022-09-24T16:30:06;15.40;99.90
45535;DHT22;35892;48.798;9.698;2022-09-24T16:32:33;15.40;99.90
45535;DHT22;35892;48.798;9.698;2022-09-24T16:35:00;15.40;99.90
45535;DHT22;35892;48.798;9.698;2022-09-24T16:37:29;15.30;99.90
45535;DHT22;35892;48.798;9.698;2022-09-24T16:39:56;15.30;99.90
45535;DHT22;35892;48.798;9.698;2022-09-24T16:42:25;15.30;99.90
45535;DHT22;35892;48.798;9.698;2022-09-24T16:44:54;15.30;99.90
45535;DHT22;35892;48.798;9.698;2022-09-24T16:47:24;15.20;99.90
45535;DHT22;35892;48.798;9.698;2022-09-24T16:49:50;15.20;99.90
45535;DHT22;35892;48.798;9.698;2022-09-24T16:52:17;15.20;99.90
45535;DHT22;35892;48.798;9.698;2022-09-24T16:54:46;15.20;99.90
45535;DHT22;35892;48.798;9.698;2022-09-24T16:57:13;15.20;99.90
45535;DHT22;35892;48.798;9.698;2022-09-24T16:59:40;15.10;99.90
45535;DHT22;35892;48.798;9.698;2022-09-24T17:02:10;15.10;99.90
45535;DHT22;35892;48.798;9.698;2022-09-24T17:04:42;15.00;99.90
45535;DHT22;35892;48.798;9.698;2022-09-24T17:07:09;15.00;99.90
45535;DHT22;35892;48.798;9.698;2022-09-24T17:09:37;15.00;99.90
45535;DHT22;35892;48.798;9.698;2022-09-24T17:12:23;15.00;99.90
45535;DHT22;35892;48.798;9.698;2022-09-24T17:14:50;15.00;99.90
45535;DHT22;35892;48.798;9.698;2022-09-24T17:17:19;14.90;99.90
45535;DHT22;35892;48.798;9.698;2022-09-24T17:19:48;14.90;99.90
45535;DHT22;35892;48.798;9.698;2022-09-24T17:22:15;14.90;99.90
45535;DHT22;35892;48.798;9.698;2022-09-24T17:24:44;14.80;99.90
45535;DHT22;35892;48.798;9.698;2022-09-24T17:27:11;14.70;99.90
45535;DHT22;35892;48.798;9.698;2022-09-24T17:29:37;14.70;99.90
45535;DHT22;35892;48.798;9.698;2022-09-24T17:32:04;14.60;99.90
45535;DHT22;35892;48.798;9.698;2022-09-24T17:34:33;14.50;99.90
45535;DHT22;35892;48.798;9.698;2022-09-24T17:37:00;14.40;99.90
45535;DHT22;35892;48.798;9.698;2022-09-24T17:39:27;14.30;99.90
45535;DHT22;35892;48.798;9.698;2022-09-24T17:41:56;14.20;99.90
45535;DHT22;35892;48.798;9.698;2022-09-24T17:44:23;14.10;99.90
45535;DHT22;35892;48.798;9.698;2022-09-24T17:46:52;14.10;99.90
45535;DHT22;35892;48.798;9.698;2022-09-24T17:49:21;14.00;99.90
45535;DHT22;35892;48.798;9.698;2022-09-24T17:51:50;14.00;99.90
45535;DHT22;35892;48.798;9.698;2022-09-24T17:54:17;13.90;99.90
45535;DHT22;35892;48.798;9.698;2022-09-24T17:56:46;14.00;99.90
45535;DHT22;35892;48.798;9.698;2022-09-24T17:59:14;13.90;99.90
45535;DHT22;35892;48.798;9.698;2022-09-24T18:01:44;14.00;99.90
45535;DHT22;35892;48.798;9.698;2022-09-24T18:04:14;14.00;99.90
45535;DHT22;35892;48.798;9.698;2022-09-24T18:06:42;14.10;99.90
45535;DHT22;35892;48.798;9.698;2022-09-24T18:09:14;14.10;99.90
45535;DHT22;35892;48.798;9.698;2022-09-24T18:11:46;14.10;99.90
45535;DHT22;35892;48.798;9.698;2022-09-24T18:14:18;14.20;99.90
45535;DHT22;35892;48.798;9.698;2022-09-24T18:16:45;14.10;99.90
45535;DHT22;35892;48.798;9.698;2022-09-24T18:19:17;14.10;99.90
45535;DHT22;35892;48.798;9.698;2022-09-24T18:21:44;14.10;99.90
45535;DHT22;35892;48.798;9.698;2022-09-24T18:24:14;14.10;99.90